createdAt,value
2023-02-23T00:01:17.134Z,31.77
2023-02-23T00:03:45.958Z,33.37
2023-02-23T00:06:15.190Z,36.07
2023-02-23T00:08:43.089Z,37.90
2023-02-23T00:11:12.633Z,41.83
2023-02-23T00:13:41.191Z,33.13
2023-02-23T00:16:12.586Z,38.07
2023-02-23T00:18:45.958Z,34.83
2023-02-23T00:21:16.633Z,34.20
2023-02-23T00:23:45.384Z,38.27
2023-02-23T00:26:13.644Z,33.53
2023-02-23T00:28:43.574Z,41.17
2023-02-23T00:31:11.777Z,33.63
2023-02-23T00:33:39.719Z,38.47
2023-02-23T00:36:10.668Z,39.03
2023-02-23T00:38:40.316Z,38.77
2023-02-23T00:41:09.508Z,38.90
2023-02-23T00:43:37.950Z,32.83
2023-02-23T00:46:07.134Z,31.10
2023-02-23T00:48:37.279Z,35.00
2023-02-23T00:51:06.806Z,36.20
2023-02-23T00:53:34.522Z,31.10
2023-02-23T00:56:05.041Z,36.37
2023-02-23T00:58:37.413Z,36.07
2023-02-23T01:01:07.252Z,36.67
2023-02-23T01:03:35.400Z,36.43
2023-02-23T01:06:06.128Z,33.20
2023-02-23T01:08:34.793Z,37.93
2023-02-23T01:11:09.394Z,44.17
2023-02-23T01:13:37.468Z,41.90
2023-02-23T01:16:05.836Z,37.10
2023-02-23T01:18:34.689Z,41.23
2023-02-23T01:21:03.119Z,36.73
2023-02-23T01:23:30.799Z,35.53
2023-02-23T01:25:58.476Z,36.17
2023-02-23T01:28:27.798Z,40.70
2023-02-23T01:30:55.614Z,42.00
2023-02-23T01:33:25.662Z,29.67
2023-02-23T01:35:59.901Z,41.77
2023-02-23T01:38:28.106Z,39.20
2023-02-23T01:40:55.720Z,42.37
2023-02-23T01:43:26.335Z,37.67
2023-02-23T01:45:56.582Z,40.50
2023-02-23T01:48:26.627Z,39.43
2023-02-23T01:50:56.871Z,38.40
2023-02-23T01:53:26.700Z,36.83
2023-02-23T01:55:55.958Z,36.63
2023-02-23T01:58:25.220Z,42.97
2023-02-23T02:00:55.381Z,39.87
2023-02-23T02:03:27.703Z,45.67
2023-02-23T02:05:57.028Z,39.57
2023-02-23T02:08:26.766Z,43.13
2023-02-23T02:10:57.668Z,41.77
2023-02-23T02:13:27.750Z,43.83
2023-02-23T02:16:15.453Z,33.23
2023-02-23T02:18:53.242Z,41.40
2023-02-23T02:21:36.292Z,40.40
2023-02-23T02:24:29.815Z,38.20
2023-02-23T02:27:06.081Z,39.60
2023-02-23T02:29:48.334Z,41.60
2023-02-23T02:32:43.696Z,35.17
2023-02-23T02:35:26.932Z,39.80
2023-02-23T02:38:02.239Z,37.50
2023-02-23T02:40:33.021Z,34.83
2023-02-23T02:43:08.243Z,42.07
2023-02-23T02:45:40.648Z,36.80
2023-02-23T02:48:15.347Z,36.23
2023-02-23T02:50:46.342Z,46.73
2023-02-23T02:53:18.418Z,46.27
2023-02-23T02:55:48.425Z,42.40
2023-02-23T02:58:19.046Z,37.77
2023-02-23T03:01:05.466Z,40.87
2023-02-23T03:03:52.736Z,40.37
2023-02-23T03:06:40.905Z,39.40
2023-02-23T03:09:32.466Z,40.23
2023-02-23T03:12:24.275Z,38.33
2023-02-23T03:15:12.859Z,41.73
2023-02-23T03:18:01.751Z,41.97
2023-02-23T03:20:49.122Z,46.73
2023-02-23T03:23:38.507Z,42.43
2023-02-23T03:26:28.325Z,42.60
2023-02-23T03:29:18.560Z,43.83
2023-02-23T03:32:06.585Z,39.63
2023-02-23T03:34:55.939Z,42.40
2023-02-23T03:37:47.221Z,43.53
2023-02-23T03:40:37.216Z,41.77
2023-02-23T03:43:26.030Z,41.30
2023-02-23T03:46:14.819Z,37.30
2023-02-23T03:49:02.175Z,43.83
2023-02-23T03:51:50.402Z,40.10
2023-02-23T03:54:39.224Z,38.57
2023-02-23T03:57:26.770Z,36.23
2023-02-23T04:00:15.052Z,46.87
2023-02-23T04:03:03.952Z,40.43
2023-02-23T04:05:50.013Z,38.87
2023-02-23T04:08:37.238Z,35.17
2023-02-23T04:11:30.746Z,44.13
2023-02-23T04:13:59.968Z,49.73
2023-02-23T04:16:29.437Z,45.03
2023-02-23T04:18:57.256Z,56.27
2023-02-23T04:21:25.185Z,43.13
2023-02-23T04:23:52.907Z,47.27
2023-02-23T04:26:43.141Z,47.30
2023-02-23T04:29:11.393Z,43.70
2023-02-23T04:31:41.588Z,40.60
2023-02-23T04:34:11.365Z,45.00
2023-02-23T04:36:39.034Z,44.43
2023-02-23T04:39:06.833Z,40.37
2023-02-23T04:41:35.283Z,43.40
2023-02-23T04:44:03.187Z,43.67
2023-02-23T04:46:31.643Z,38.97
2023-02-23T04:49:01.115Z,47.17
2023-02-23T04:51:32.308Z,42.73
2023-02-23T04:54:00.777Z,53.23
2023-02-23T04:56:29.271Z,47.40
2023-02-23T04:58:57.566Z,42.30
2023-02-23T05:01:25.737Z,40.80
2023-02-23T05:03:54.586Z,42.43
2023-02-23T05:06:23.872Z,43.57
2023-02-23T05:08:51.911Z,46.90
2023-02-23T05:11:20.079Z,36.23
2023-02-23T05:13:48.142Z,43.93
2023-02-23T05:16:16.026Z,48.50
2023-02-23T05:18:44.352Z,38.47
2023-02-23T05:21:12.605Z,47.90
2023-02-23T05:23:41.931Z,36.53
2023-02-23T05:26:10.807Z,47.00
2023-02-23T05:28:39.229Z,39.90
2023-02-23T05:31:07.289Z,42.67
2023-02-23T05:33:42.391Z,45.80
2023-02-23T05:36:11.428Z,41.03
2023-02-23T05:38:39.518Z,39.20
2023-02-23T05:41:09.254Z,37.63
2023-02-23T05:43:37.115Z,39.77
2023-02-23T05:46:07.416Z,50.20
2023-02-23T05:48:35.771Z,39.27
2023-02-23T05:51:03.895Z,44.00
2023-02-23T05:53:31.606Z,45.63
2023-02-23T05:55:59.491Z,47.03
2023-02-23T05:58:28.551Z,45.53
2023-02-23T06:00:56.274Z,41.90
2023-02-23T06:03:24.273Z,39.20
2023-02-23T06:05:52.461Z,37.50
2023-02-23T06:08:20.078Z,37.20
2023-02-23T06:10:48.351Z,43.90
2023-02-23T06:13:16.505Z,40.57
2023-02-23T06:15:46.233Z,38.10
2023-02-23T06:18:15.604Z,60.30
2023-02-23T06:20:43.540Z,41.50
2023-02-23T06:23:15.935Z,43.00
2023-02-23T06:25:43.730Z,46.17
2023-02-23T06:28:11.638Z,42.43
2023-02-23T06:30:40.420Z,45.47
2023-02-23T06:33:09.703Z,38.33
2023-02-23T06:35:38.367Z,42.30
2023-02-23T06:38:06.674Z,34.93
2023-02-23T06:40:34.896Z,40.83
2023-02-23T06:43:03.508Z,46.23
2023-02-23T06:45:31.982Z,39.97
2023-02-23T06:47:59.711Z,44.37
2023-02-23T06:50:29.056Z,35.50
2023-02-23T06:52:57.745Z,33.90
2023-02-23T06:55:25.887Z,41.00
2023-02-23T06:57:54.618Z,37.53
2023-02-23T07:00:23.164Z,48.13
2023-02-23T07:02:50.937Z,41.07
2023-02-23T07:05:18.891Z,38.90
2023-02-23T07:07:48.112Z,38.93
2023-02-23T07:10:15.824Z,45.17
2023-02-23T07:12:43.645Z,45.83
2023-02-23T07:15:12.860Z,47.13
2023-02-23T07:17:40.711Z,45.30
2023-02-23T07:20:08.681Z,39.97
2023-02-23T07:22:39.588Z,50.67
2023-02-23T07:25:09.581Z,48.47
2023-02-23T07:27:37.855Z,42.33
2023-02-23T07:30:06.019Z,41.03
2023-02-23T07:32:33.932Z,47.30
2023-02-23T07:35:02.063Z,40.00
2023-02-23T07:37:29.689Z,39.93
2023-02-23T07:39:59.492Z,37.67
2023-02-23T07:42:30.186Z,35.17
2023-02-23T07:44:57.912Z,40.83
2023-02-23T07:47:31.215Z,38.43
2023-02-23T07:50:00.573Z,42.60
2023-02-23T07:52:28.352Z,42.87
2023-02-23T07:54:56.680Z,42.50
2023-02-23T07:57:25.061Z,47.07
2023-02-23T07:59:54.311Z,40.73
2023-02-23T08:02:22.337Z,43.53
2023-02-23T08:04:50.705Z,46.53
2023-02-23T08:07:18.311Z,37.47
2023-02-23T08:09:46.208Z,44.13
2023-02-23T08:12:15.379Z,39.87
2023-02-23T08:14:43.242Z,46.10
2023-02-23T08:17:12.666Z,35.80
2023-02-23T08:19:40.606Z,47.20
2023-02-23T08:22:10.135Z,40.60
2023-02-23T08:24:38.336Z,48.97
2023-02-23T08:27:05.956Z,37.80
2023-02-23T08:29:34.904Z,39.07
2023-02-23T08:32:03.626Z,45.40
2023-02-23T08:34:33.144Z,43.10
2023-02-23T08:37:01.262Z,45.80
2023-02-23T08:39:29.245Z,38.90
2023-02-23T08:41:57.042Z,37.10
2023-02-23T08:44:24.752Z,41.90
2023-02-23T08:46:53.743Z,53.70
2023-02-23T08:49:21.415Z,38.53
2023-02-23T08:51:50.622Z,37.93
2023-02-23T08:54:20.528Z,41.40
2023-02-23T08:56:48.348Z,40.90
2023-02-23T08:59:16.732Z,41.17
2023-02-23T09:01:44.899Z,38.03
2023-02-23T09:04:13.088Z,37.53
2023-02-23T09:06:41.444Z,39.50
2023-02-23T09:09:10.490Z,39.90
2023-02-23T09:11:38.244Z,37.07
2023-02-23T09:14:06.548Z,41.10
2023-02-23T09:16:35.600Z,38.20
2023-02-23T09:19:03.427Z,41.50
2023-02-23T09:21:34.286Z,38.87
2023-02-23T09:24:02.491Z,40.67
2023-02-23T09:26:32.444Z,33.87
2023-02-23T09:29:01.273Z,39.43
2023-02-23T09:31:29.054Z,38.93
2023-02-23T09:33:57.231Z,38.80
2023-02-23T09:36:26.407Z,38.57
2023-02-23T09:38:57.331Z,43.23
2023-02-23T09:41:49.344Z,43.80
2023-02-23T09:44:21.605Z,45.43
2023-02-23T09:46:51.485Z,42.80
2023-02-23T09:49:21.058Z,41.40
2023-02-23T09:51:51.686Z,43.60
2023-02-23T09:54:20.209Z,43.57
2023-02-23T09:56:49.688Z,40.63
2023-02-23T09:59:23.122Z,39.70
2023-02-23T10:01:54.503Z,41.73
2023-02-23T10:04:24.760Z,37.33
2023-02-23T10:06:55.761Z,42.20
2023-02-23T10:09:25.610Z,45.47
2023-02-23T10:11:56.486Z,34.97
2023-02-23T10:14:31.699Z,43.53
2023-02-23T10:17:06.644Z,39.73
2023-02-23T10:19:38.288Z,38.67
2023-02-23T10:22:07.392Z,46.97
2023-02-23T10:24:37.699Z,42.10
2023-02-23T10:27:09.778Z,39.17
2023-02-23T10:29:42.558Z,43.27
2023-02-23T10:32:16.091Z,43.50
2023-02-23T10:34:44.372Z,48.40
2023-02-23T10:37:13.375Z,37.60
2023-02-23T10:39:42.817Z,42.83
2023-02-23T10:42:14.817Z,35.63
2023-02-23T10:44:46.755Z,38.40
2023-02-23T10:47:15.539Z,42.33
2023-02-23T10:49:46.366Z,38.83
2023-02-23T10:52:15.595Z,41.43
2023-02-23T10:54:45.802Z,40.53
2023-02-23T10:57:17.064Z,37.50
2023-02-23T10:59:59.212Z,43.20
2023-02-23T11:02:28.584Z,39.10
2023-02-23T11:04:57.779Z,47.50
2023-02-23T11:07:29.803Z,44.23
2023-02-23T11:09:58.057Z,42.33
2023-02-23T11:12:29.582Z,44.73
2023-02-23T11:14:59.332Z,52.27
2023-02-23T11:17:30.882Z,44.00
2023-02-23T11:19:59.688Z,43.67
2023-02-23T11:22:31.525Z,40.47
2023-02-23T11:24:59.327Z,39.40
2023-02-23T11:27:28.289Z,37.13
2023-02-23T11:29:57.210Z,43.90
2023-02-23T11:32:28.888Z,41.13
2023-02-23T11:38:01.208Z,47.17
2023-02-23T11:40:31.543Z,47.30
2023-02-23T11:43:07.915Z,39.23
2023-02-23T11:45:42.005Z,52.43
2023-02-23T11:48:21.023Z,44.93
2023-02-23T11:50:50.319Z,44.63
2023-02-23T11:53:19.301Z,42.60
2023-02-23T11:55:49.213Z,43.60
2023-02-23T11:58:23.277Z,37.60
2023-02-23T12:00:57.943Z,43.10
2023-02-23T12:03:31.084Z,37.93
2023-02-23T12:05:59.204Z,43.53
2023-02-23T12:08:33.811Z,40.60
2023-02-23T12:11:03.276Z,48.20
2023-02-23T12:13:33.254Z,50.10
2023-02-23T12:16:03.136Z,41.57
2023-02-23T12:18:39.795Z,42.00
2023-02-23T12:21:14.320Z,43.83
2023-02-23T12:23:45.650Z,44.30
2023-02-23T12:26:18.999Z,39.67
2023-02-23T12:28:51.077Z,39.93
2023-02-23T12:31:23.390Z,47.50
2023-02-23T12:33:56.011Z,38.93
2023-02-23T12:36:29.851Z,75.67
2023-02-23T12:39:01.672Z,71.67
2023-02-23T12:41:34.776Z,180.37
2023-02-23T12:44:07.440Z,192.80
2023-02-23T12:46:36.290Z,132.03
2023-02-23T12:49:12.420Z,43.53
2023-02-23T12:51:42.142Z,49.97
2023-02-23T12:54:10.684Z,51.23
2023-02-23T12:56:52.264Z,59.27
2023-02-23T12:59:35.301Z,43.97
2023-02-23T13:02:04.313Z,73.23
2023-02-23T13:04:56.449Z,42.60
2023-02-23T13:07:34.403Z,47.33
2023-02-23T13:10:06.385Z,49.17
2023-02-23T13:12:40.234Z,54.07
2023-02-23T13:15:19.775Z,50.83
2023-02-23T13:17:51.930Z,110.63
2023-02-23T13:20:25.733Z,57.17
2023-02-23T13:22:58.557Z,40.33
2023-02-23T13:25:30.310Z,48.90
2023-02-23T13:27:59.792Z,48.50
2023-02-23T13:30:27.875Z,45.57
2023-02-23T13:32:56.140Z,55.20
2023-02-23T13:35:25.965Z,52.33
2023-02-23T13:37:55.705Z,55.90
2023-02-23T13:40:29.171Z,47.83
2023-02-23T13:43:01.662Z,49.40
2023-02-23T13:45:39.599Z,44.33
2023-02-23T13:48:15.470Z,46.60
2023-02-23T13:50:49.278Z,49.83
2023-02-23T13:53:32.416Z,51.60
2023-02-23T13:56:04.159Z,43.10
2023-02-23T13:58:33.558Z,48.97
2023-02-23T14:01:11.351Z,45.13
2023-02-23T14:03:46.958Z,47.30
2023-02-23T14:06:37.740Z,45.23
2023-02-23T14:09:09.473Z,46.63
2023-02-23T14:11:44.484Z,48.73
2023-02-23T14:14:17.171Z,44.20
2023-02-23T14:16:48.127Z,45.53
2023-02-23T14:19:36.272Z,49.70
2023-02-23T14:22:06.697Z,56.20
2023-02-23T14:24:34.532Z,51.57
2023-02-23T14:27:40.235Z,52.47
2023-02-23T14:30:22.247Z,54.90
2023-02-23T14:32:51.055Z,51.90
2023-02-23T14:35:42.583Z,54.13
2023-02-23T14:38:13.169Z,52.40
2023-02-23T14:40:42.060Z,55.57
2023-02-23T14:43:24.801Z,57.33
2023-02-23T14:45:55.836Z,57.17
2023-02-23T14:48:23.663Z,59.77
2023-02-23T14:50:51.410Z,57.73
2023-02-23T14:53:22.616Z,56.57
2023-02-23T14:55:50.653Z,63.23
2023-02-23T14:58:23.552Z,58.13
2023-02-23T15:00:52.020Z,56.93
2023-02-23T15:03:19.667Z,61.53
2023-02-23T15:05:52.644Z,60.23
2023-02-23T15:08:24.057Z,61.87
2023-02-23T15:10:53.372Z,70.00
2023-02-23T15:13:29.180Z,61.80
2023-02-23T15:15:57.719Z,63.67
2023-02-23T15:18:29.082Z,63.13
2023-02-23T15:20:56.916Z,70.63
2023-02-23T15:23:26.391Z,68.10
2023-02-23T15:25:54.215Z,74.83
2023-02-23T15:28:23.827Z,70.90
2023-02-23T15:30:54.431Z,75.57
2023-02-23T15:33:28.363Z,80.60
2023-02-23T15:35:58.555Z,80.30
2023-02-23T15:38:42.899Z,76.73
2023-02-23T15:41:16.311Z,76.87
2023-02-23T15:43:44.382Z,77.17
2023-02-23T15:46:23.255Z,83.13
2023-02-23T15:48:51.692Z,76.47
2023-02-23T15:51:22.994Z,76.83
2023-02-23T15:53:53.426Z,70.90
2023-02-23T15:56:23.717Z,75.27
2023-02-23T15:58:57.297Z,71.20
2023-02-23T16:01:26.303Z,78.57
2023-02-23T16:03:59.640Z,79.07
2023-02-23T16:06:28.267Z,76.40
2023-02-23T16:09:02.989Z,72.23
2023-02-23T16:11:35.917Z,71.70
2023-02-23T16:14:06.839Z,68.40
2023-02-23T16:16:36.651Z,71.50
2023-02-23T16:19:05.158Z,77.70
2023-02-23T16:21:33.410Z,73.50
2023-02-23T16:24:08.327Z,76.10
2023-02-23T16:26:40.431Z,83.00
2023-02-23T16:29:10.489Z,87.10
2023-02-23T16:31:43.925Z,101.97
2023-02-23T16:34:19.777Z,89.93
2023-02-23T16:36:53.832Z,100.77
2023-02-23T16:39:26.266Z,93.83
2023-02-23T16:41:54.185Z,100.27
2023-02-23T16:44:26.268Z,95.27
2023-02-23T16:46:57.914Z,101.30
2023-02-23T16:49:25.831Z,111.40
2023-02-23T16:51:53.540Z,111.70
2023-02-23T16:54:23.501Z,119.63
2023-02-23T16:56:55.288Z,135.00
2023-02-23T16:59:24.112Z,124.20
2023-02-23T17:01:51.902Z,123.47
2023-02-23T17:04:23.293Z,145.63
2023-02-23T17:06:55.680Z,150.30
2023-02-23T17:09:25.188Z,147.87
2023-02-23T17:11:52.877Z,150.30
2023-02-23T17:14:24.731Z,165.37
2023-02-23T17:16:52.679Z,157.43
2023-02-23T17:19:22.817Z,171.47
2023-02-23T17:21:52.308Z,175.03
2023-02-23T17:24:19.918Z,164.40
2023-02-23T17:26:48.980Z,166.83
2023-02-23T17:29:17.273Z,166.53
2023-02-23T17:31:45.190Z,188.20
2023-02-23T17:34:13.386Z,187.37
2023-02-23T17:36:41.329Z,193.20
2023-02-23T17:39:09.897Z,190.27
2023-02-23T17:41:37.632Z,193.43
2023-02-23T17:44:06.870Z,188.17
2023-02-23T17:46:34.660Z,203.33
2023-02-23T17:49:02.671Z,194.90
2023-02-23T17:51:30.483Z,192.33
2023-02-23T17:53:58.215Z,192.30
2023-02-23T17:56:26.882Z,186.97
2023-02-23T17:58:54.664Z,199.27
2023-02-23T18:01:24.429Z,199.70
2023-02-23T18:03:52.583Z,194.10
2023-02-23T18:06:20.547Z,208.63
2023-02-23T18:08:48.336Z,196.40
2023-02-23T18:11:18.513Z,199.80
2023-02-23T18:13:48.094Z,203.40
2023-02-23T18:16:16.125Z,191.13
2023-02-23T18:18:47.800Z,210.93
2023-02-23T18:21:16.413Z,213.50
2023-02-23T18:23:44.363Z,200.40
2023-02-23T18:26:14.084Z,222.17
2023-02-23T18:28:44.427Z,206.60
2023-02-23T18:31:13.971Z,213.07
2023-02-23T18:33:42.418Z,227.47
2023-02-23T18:36:17.617Z,231.07
2023-02-23T18:38:45.581Z,233.17
2023-02-23T18:41:13.398Z,234.70
2023-02-23T18:43:41.579Z,231.57
2023-02-23T18:46:09.711Z,230.30
2023-02-23T18:48:41.654Z,229.47
2023-02-23T18:51:14.742Z,194.73
2023-02-23T18:53:44.698Z,223.00
2023-02-23T18:56:13.425Z,212.77
2023-02-23T18:58:42.206Z,217.60
2023-02-23T19:01:11.991Z,212.93
2023-02-23T19:03:41.487Z,195.10
2023-02-23T19:06:11.744Z,191.43
2023-02-23T19:08:39.422Z,206.37
2023-02-23T19:11:08.960Z,198.30
2023-02-23T19:13:38.037Z,221.57
2023-02-23T19:16:06.956Z,197.67
2023-02-23T19:18:35.560Z,194.13
2023-02-23T19:21:03.488Z,200.97
2023-02-23T19:23:31.585Z,180.97
2023-02-23T19:26:02.332Z,195.73
2023-02-23T19:28:32.851Z,196.50
2023-02-23T19:31:05.099Z,196.10
2023-02-23T19:33:33.654Z,185.23
2023-02-23T19:36:02.121Z,197.17
2023-02-23T19:38:30.104Z,190.70
2023-02-23T19:40:58.051Z,177.27
2023-02-23T19:43:26.042Z,170.07
2023-02-23T19:45:55.331Z,180.03
2023-02-23T19:48:25.538Z,179.30
2023-02-23T19:50:56.314Z,187.33
2023-02-23T19:53:23.966Z,174.50
2023-02-23T19:55:59.598Z,181.80
2023-02-23T19:58:27.353Z,168.40
2023-02-23T20:00:57.717Z,165.07
2023-02-23T20:03:28.456Z,157.80
2023-02-23T20:05:56.811Z,170.27
2023-02-23T20:08:24.549Z,158.20
2023-02-23T20:10:53.340Z,148.77
2023-02-23T20:13:23.558Z,137.87
2023-02-23T20:15:52.126Z,140.83
2023-02-23T20:18:22.486Z,121.33
2023-02-23T20:20:50.131Z,104.53
2023-02-23T20:23:18.685Z,97.57
2023-02-23T20:25:49.904Z,96.43
2023-02-23T20:28:17.753Z,91.90
2023-02-23T20:30:46.755Z,98.67
2023-02-23T20:33:15.684Z,100.47
2023-02-23T20:35:45.410Z,107.63
2023-02-23T20:38:14.327Z,112.20
2023-02-23T20:40:43.181Z,102.80
2023-02-23T20:43:11.806Z,121.60
2023-02-23T20:45:43.122Z,121.43
2023-02-23T20:48:12.366Z,117.20
2023-02-23T20:50:42.603Z,112.90
2023-02-23T20:53:11.834Z,117.13
2023-02-23T20:55:39.891Z,125.30
2023-02-23T20:58:07.659Z,125.10
2023-02-23T21:00:35.539Z,123.70
2023-02-23T21:03:03.663Z,133.60
2023-02-23T21:05:33.341Z,132.40
2023-02-23T21:08:02.026Z,130.30
2023-02-23T21:10:32.840Z,136.90
2023-02-23T21:13:00.805Z,148.47
2023-02-23T21:15:29.459Z,144.53
2023-02-23T21:17:57.416Z,145.10
2023-02-23T21:20:25.553Z,147.73
2023-02-23T21:22:53.303Z,140.53
2023-02-23T21:25:22.370Z,139.87
2023-02-23T21:27:51.939Z,140.43
2023-02-23T21:30:23.002Z,132.60
2023-02-23T21:32:53.454Z,137.00
2023-02-23T21:35:23.550Z,130.70
2023-02-23T21:37:52.179Z,140.57
2023-02-23T21:40:22.319Z,141.70
2023-02-23T21:42:52.111Z,141.00
2023-02-23T21:45:21.364Z,140.10
2023-02-23T21:47:50.875Z,146.57
2023-02-23T21:50:22.684Z,152.80
2023-02-23T21:52:54.265Z,134.90
2023-02-23T21:55:22.825Z,133.97
2023-02-23T21:57:52.894Z,139.50
2023-02-23T22:00:23.085Z,135.07
2023-02-23T22:02:53.306Z,148.63
2023-02-23T22:05:21.684Z,127.30
2023-02-23T22:07:50.962Z,131.43
2023-02-23T22:10:20.066Z,143.80
2023-02-23T22:12:51.382Z,132.07
2023-02-23T22:15:24.468Z,136.10
2023-02-23T22:17:52.432Z,129.67
2023-02-23T22:20:21.067Z,129.20
2023-02-23T22:22:50.322Z,125.57
2023-02-23T22:25:19.036Z,137.50
2023-02-23T22:27:48.373Z,133.10
2023-02-23T22:30:16.152Z,131.63
2023-02-23T22:32:45.540Z,132.03
2023-02-23T22:35:13.450Z,129.27
2023-02-23T22:37:41.575Z,138.43
2023-02-23T22:40:13.806Z,145.60
2023-02-23T22:42:44.779Z,145.30
2023-02-23T22:45:12.980Z,135.07
2023-02-23T22:47:40.675Z,140.63
2023-02-23T22:50:12.151Z,151.07
2023-02-23T22:52:40.074Z,155.10
2023-02-23T22:55:08.942Z,160.13
2023-02-23T22:57:36.626Z,150.80
2023-02-23T23:00:06.575Z,140.93
2023-02-23T23:02:36.087Z,150.90
2023-02-23T23:05:03.820Z,152.37
2023-02-23T23:07:32.760Z,144.83
2023-02-23T23:10:04.148Z,140.53
2023-02-23T23:12:34.314Z,137.27
2023-02-23T23:15:02.333Z,134.53
2023-02-23T23:17:34.636Z,143.90
2023-02-23T23:20:10.573Z,138.73
2023-02-23T23:22:40.213Z,134.50
2023-02-23T23:25:14.490Z,123.00
2023-02-23T23:27:43.653Z,131.13
2023-02-23T23:30:12.829Z,134.33
2023-02-23T23:32:41.473Z,148.07
2023-02-23T23:38:06.054Z,137.80
2023-02-23T23:40:35.826Z,127.80
2023-02-23T23:43:07.406Z,155.23
2023-02-23T23:45:38.382Z,134.77
2023-02-23T23:48:09.466Z,129.87
2023-02-23T23:50:39.733Z,126.17
2023-02-23T23:53:10.450Z,125.00
2023-02-23T23:55:38.517Z,128.83
2023-02-23T23:58:06.912Z,130.53
